createdAt,value
2019-06-27T00:01:31.293Z,10.85
2019-06-27T00:03:59.672Z,11.03
2019-06-27T00:06:28.157Z,11.28
2019-06-27T00:08:56.536Z,11.80
2019-06-27T00:11:25.333Z,11.80
2019-06-27T00:13:53.528Z,11.25
2019-06-27T00:16:21.824Z,10.55
2019-06-27T00:18:50.560Z,10.82
2019-06-27T00:21:19.549Z,9.90
2019-06-27T00:23:48.354Z,10.77
2019-06-27T00:26:16.710Z,10.08
2019-06-27T00:28:45.106Z,10.28
2019-06-27T00:31:13.589Z,10.45
2019-06-27T00:33:41.846Z,10.10
2019-06-27T00:36:10.678Z,9.90
2019-06-27T00:38:39.013Z,9.90
2019-06-27T00:41:07.218Z,10.20
2019-06-27T00:43:35.586Z,9.73
2019-06-27T00:46:04.057Z,9.40
2019-06-27T00:48:32.249Z,9.73
2019-06-27T00:51:01.579Z,9.50
2019-06-27T00:53:30.176Z,9.48
2019-06-27T00:55:58.497Z,9.65
2019-06-27T00:58:26.720Z,9.50
2019-06-27T01:00:55.340Z,9.10
2019-06-27T01:03:23.631Z,9.50
2019-06-27T01:05:52.089Z,9.43
2019-06-27T01:08:20.333Z,9.50
2019-06-27T01:10:48.980Z,9.55
2019-06-27T01:13:17.215Z,9.45
2019-06-27T01:15:45.463Z,9.68
2019-06-27T01:18:13.871Z,9.93
2019-06-27T01:20:42.087Z,9.58
2019-06-27T01:23:10.741Z,9.18
2019-06-27T01:25:38.959Z,9.60
2019-06-27T01:28:08.219Z,9.40
2019-06-27T01:30:36.700Z,9.28
2019-06-27T01:33:05.765Z,9.53
2019-06-27T01:35:34.256Z,9.40
2019-06-27T01:38:02.525Z,9.65
2019-06-27T01:40:30.752Z,9.58
2019-06-27T01:42:59.460Z,9.40
2019-06-27T01:45:32.489Z,8.73
2019-06-27T01:48:00.762Z,8.63
2019-06-27T01:50:29.254Z,8.78
2019-06-27T01:52:58.523Z,8.10
2019-06-27T01:55:27.234Z,7.58
2019-06-27T01:57:55.708Z,7.75
2019-06-27T02:00:24.445Z,8.35
2019-06-27T02:02:52.598Z,8.25
2019-06-27T02:05:20.813Z,8.15
2019-06-27T02:07:49.074Z,8.00
2019-06-27T02:10:17.691Z,7.75
2019-06-27T02:12:46.637Z,8.00
2019-06-27T02:15:15.280Z,7.97
2019-06-27T02:17:43.769Z,8.08
2019-06-27T02:20:12.023Z,8.00
2019-06-27T02:22:40.921Z,8.55
2019-06-27T02:25:09.372Z,7.95
2019-06-27T02:27:37.995Z,7.65
2019-06-27T02:30:07.320Z,8.25
2019-06-27T02:32:35.904Z,10.53
2019-06-27T02:35:05.378Z,13.58
2019-06-27T02:37:33.747Z,14.45
2019-06-27T02:40:02.131Z,15.93
2019-06-27T02:42:30.485Z,15.83
2019-06-27T02:44:58.856Z,13.18
2019-06-27T02:47:27.548Z,14.65
2019-06-27T02:49:55.881Z,13.78
2019-06-27T02:52:24.736Z,14.75
2019-06-27T02:54:54.128Z,15.75
2019-06-27T02:57:22.615Z,15.18
2019-06-27T02:59:50.980Z,15.80
2019-06-27T03:02:19.478Z,13.83
2019-06-27T03:04:47.676Z,14.40
2019-06-27T03:07:16.093Z,13.50
2019-06-27T03:09:45.156Z,14.55
2019-06-27T03:12:13.507Z,14.00
2019-06-27T03:14:41.872Z,13.75
2019-06-27T03:17:10.371Z,13.18
2019-06-27T03:19:38.835Z,12.78
2019-06-27T03:22:07.411Z,12.90
2019-06-27T03:24:35.785Z,12.78
2019-06-27T03:27:04.301Z,12.43
2019-06-27T03:29:32.757Z,12.15
2019-06-27T03:32:01.061Z,12.50
2019-06-27T03:34:29.582Z,10.60
2019-06-27T03:36:57.890Z,10.63
2019-06-27T03:39:26.158Z,10.72
2019-06-27T03:41:54.364Z,10.55
2019-06-27T03:44:23.101Z,9.85
2019-06-27T03:46:51.511Z,10.13
2019-06-27T03:49:19.765Z,10.28
2019-06-27T03:51:48.238Z,10.72
2019-06-27T03:54:16.522Z,10.15
2019-06-27T03:56:45.784Z,10.23
2019-06-27T03:59:14.311Z,9.65
2019-06-27T04:01:43.002Z,9.88
2019-06-27T04:04:11.726Z,9.83
2019-06-27T04:06:40.772Z,9.65
2019-06-27T04:09:09.394Z,9.80
2019-06-27T04:11:37.829Z,10.18
2019-06-27T04:14:06.099Z,8.95
2019-06-27T04:16:36.321Z,9.60
2019-06-27T04:19:05.001Z,9.73
2019-06-27T04:21:33.328Z,9.98
2019-06-27T04:24:01.782Z,9.35
2019-06-27T04:26:30.222Z,9.78
2019-06-27T04:28:58.798Z,9.60
2019-06-27T04:31:27.317Z,9.70
2019-06-27T04:33:55.699Z,8.80
2019-06-27T04:36:24.065Z,9.50
2019-06-27T04:38:52.659Z,8.75
2019-06-27T04:41:20.955Z,8.68
2019-06-27T04:43:49.649Z,8.63
2019-06-27T04:46:19.216Z,8.90
2019-06-27T04:48:47.808Z,9.73
2019-06-27T04:51:16.494Z,10.90
2019-06-27T04:53:44.809Z,10.00
2019-06-27T04:56:13.241Z,9.70
2019-06-27T04:58:42.788Z,9.78
2019-06-27T05:01:11.056Z,9.65
2019-06-27T05:03:39.510Z,9.50
2019-06-27T05:06:07.878Z,9.20
2019-06-27T05:08:37.012Z,8.25
2019-06-27T05:11:05.566Z,9.58
2019-06-27T05:13:34.527Z,9.48
2019-06-27T05:16:04.153Z,9.33
2019-06-27T05:18:32.505Z,9.18
2019-06-27T05:21:01.005Z,10.28
2019-06-27T05:23:29.504Z,9.83
2019-06-27T05:25:58.219Z,9.48
2019-06-27T05:28:26.542Z,9.90
2019-06-27T05:30:54.762Z,9.40
2019-06-27T05:33:23.339Z,8.83
2019-06-27T05:35:52.136Z,9.13
2019-06-27T05:38:20.362Z,9.25
2019-06-27T05:40:48.647Z,9.53
2019-06-27T05:43:17.043Z,9.55
2019-06-27T05:45:45.255Z,9.43
2019-06-27T05:48:14.056Z,9.38
2019-06-27T05:50:42.362Z,9.48
2019-06-27T05:53:10.986Z,9.73
2019-06-27T05:55:39.636Z,9.13
2019-06-27T05:58:08.448Z,9.85
2019-06-27T06:00:37.731Z,10.43
2019-06-27T06:03:06.022Z,9.90
2019-06-27T06:05:35.032Z,9.25
2019-06-27T06:08:04.912Z,9.43
2019-06-27T06:10:33.503Z,10.23
2019-06-27T06:13:02.083Z,9.75
2019-06-27T06:15:30.441Z,9.40
2019-06-27T06:17:59.434Z,10.15
2019-06-27T06:20:28.369Z,9.65
2019-06-27T06:22:57.807Z,10.48
2019-06-27T06:25:26.345Z,10.32
2019-06-27T06:27:55.698Z,9.93
2019-06-27T06:30:24.489Z,10.10
2019-06-27T06:32:53.604Z,10.18
2019-06-27T06:35:22.287Z,10.32
2019-06-27T06:37:51.377Z,10.50
2019-06-27T06:40:19.646Z,9.95
2019-06-27T06:42:48.340Z,10.78
2019-06-27T06:45:17.210Z,11.15
2019-06-27T06:47:45.498Z,10.80
2019-06-27T06:50:13.994Z,10.55
2019-06-27T06:52:42.754Z,11.40
2019-06-27T06:55:10.922Z,11.43
2019-06-27T06:57:40.245Z,11.45
2019-06-27T07:00:09.353Z,12.15
2019-06-27T07:02:38.833Z,11.78
2019-06-27T07:05:07.316Z,11.65
2019-06-27T07:07:36.240Z,11.22
2019-06-27T07:10:06.430Z,11.57
2019-06-27T07:12:34.860Z,11.35
2019-06-27T07:15:04.578Z,11.73
2019-06-27T07:17:33.720Z,11.55
2019-06-27T07:20:02.472Z,11.73
2019-06-27T07:22:31.858Z,11.90
2019-06-27T07:25:00.531Z,11.75
2019-06-27T07:27:28.978Z,12.13
2019-06-27T07:29:57.947Z,11.55
2019-06-27T07:32:26.895Z,11.85
2019-06-27T07:34:55.395Z,12.55
2019-06-27T07:37:24.114Z,12.73
2019-06-27T07:39:53.036Z,12.18
2019-06-27T07:42:21.346Z,11.40
2019-06-27T07:44:49.969Z,12.18
2019-06-27T07:47:18.809Z,12.75
2019-06-27T07:49:47.957Z,12.37
2019-06-27T07:52:16.425Z,13.05
2019-06-27T07:54:44.918Z,13.68
2019-06-27T07:57:13.220Z,13.58
2019-06-27T07:59:41.519Z,14.30
2019-06-27T08:02:09.933Z,13.28
2019-06-27T08:04:39.326Z,14.70
2019-06-27T08:07:07.706Z,14.23
2019-06-27T08:09:36.942Z,13.98
2019-06-27T08:12:05.350Z,14.43
2019-06-27T08:14:33.723Z,14.10
2019-06-27T08:17:02.493Z,13.90
2019-06-27T08:19:31.541Z,12.98
2019-06-27T08:21:59.900Z,13.32
2019-06-27T08:24:28.936Z,13.32
2019-06-27T08:26:57.881Z,13.38
2019-06-27T08:29:26.640Z,13.85
2019-06-27T08:31:55.414Z,13.83
2019-06-27T08:34:24.232Z,14.33
2019-06-27T08:36:53.055Z,14.45
2019-06-27T08:39:21.427Z,13.20
2019-06-27T08:41:49.795Z,13.48
2019-06-27T08:44:18.950Z,12.68
2019-06-27T08:46:47.783Z,11.57
2019-06-27T08:49:17.226Z,12.13
2019-06-27T08:51:45.976Z,11.48
2019-06-27T08:54:15.128Z,11.50
2019-06-27T08:56:45.612Z,12.25
2019-06-27T08:59:14.569Z,12.68
2019-06-27T09:01:43.236Z,11.55
2019-06-27T09:04:11.720Z,11.30
2019-06-27T09:06:40.545Z,11.57
2019-06-27T09:09:08.847Z,11.35
2019-06-27T09:11:38.375Z,10.70
2019-06-27T09:14:08.771Z,11.10
2019-06-27T09:16:37.360Z,10.60
2019-06-27T09:19:06.186Z,10.60
2019-06-27T09:21:34.781Z,10.82
2019-06-27T09:24:04.609Z,10.60
2019-06-27T09:26:34.084Z,11.60
2019-06-27T09:29:04.710Z,11.18
2019-06-27T09:31:33.657Z,11.65
2019-06-27T09:34:02.143Z,11.40
2019-06-27T09:36:31.054Z,11.63
2019-06-27T09:39:00.265Z,11.60
2019-06-27T09:41:28.707Z,11.03
2019-06-27T09:43:57.161Z,10.90
2019-06-27T09:46:26.321Z,10.30
2019-06-27T09:48:55.487Z,9.70
2019-06-27T09:51:24.298Z,9.50
2019-06-27T09:53:53.012Z,9.33
2019-06-27T09:56:22.509Z,8.35
2019-06-27T09:58:51.078Z,8.58
2019-06-27T10:01:19.730Z,8.13
2019-06-27T10:03:48.702Z,7.97
2019-06-27T10:06:18.222Z,8.73
2019-06-27T10:08:48.857Z,8.85
2019-06-27T10:11:18.320Z,7.72
2019-06-27T10:13:48.370Z,7.37
2019-06-27T10:16:16.943Z,6.92
2019-06-27T10:18:45.417Z,6.95
2019-06-27T10:21:14.563Z,7.10
2019-06-27T10:23:43.823Z,6.60
2019-06-27T10:26:12.922Z,7.47
2019-06-27T10:28:41.940Z,8.15
2019-06-27T10:31:10.587Z,7.20
2019-06-27T10:33:39.326Z,7.72
2019-06-27T10:36:08.160Z,7.85
2019-06-27T10:38:36.548Z,7.87
2019-06-27T10:41:05.108Z,7.47
2019-06-27T10:43:33.555Z,7.20
2019-06-27T10:46:02.069Z,7.30
2019-06-27T10:48:31.343Z,7.30
2019-06-27T10:51:00.275Z,6.60
2019-06-27T10:53:30.828Z,6.08
2019-06-27T10:55:59.148Z,6.12
2019-06-27T10:58:27.787Z,6.05
2019-06-27T11:00:57.874Z,5.80
2019-06-27T11:03:26.274Z,5.90
2019-06-27T11:05:54.526Z,6.00
2019-06-27T11:08:22.782Z,5.28
2019-06-27T11:10:52.787Z,5.80
2019-06-27T11:13:21.194Z,5.65
2019-06-27T11:15:49.686Z,5.30
2019-06-27T11:18:21.145Z,5.33
2019-06-27T11:20:48.091Z,4.97
2019-06-27T11:23:16.375Z,4.97
2019-06-27T11:25:44.629Z,4.53
2019-06-27T11:28:12.901Z,4.30
2019-06-27T11:30:41.184Z,3.60
2019-06-27T11:33:10.085Z,4.05
2019-06-27T11:35:38.757Z,3.77
2019-06-27T11:38:07.772Z,3.67
2019-06-27T11:40:36.521Z,3.52
2019-06-27T11:43:04.730Z,3.70
2019-06-27T11:45:33.420Z,3.95
2019-06-27T11:48:02.128Z,3.92
2019-06-27T11:50:31.403Z,3.70
2019-06-27T11:52:59.788Z,3.42
2019-06-27T11:55:28.653Z,3.17
2019-06-27T11:57:57.122Z,3.55
2019-06-27T12:00:25.813Z,3.40
2019-06-27T12:02:54.047Z,3.33
2019-06-27T12:05:22.863Z,3.10
2019-06-27T12:07:51.142Z,2.95
2019-06-27T12:10:19.723Z,2.87
2019-06-27T12:12:49.272Z,2.75
2019-06-27T12:15:18.593Z,3.02
2019-06-27T12:17:47.468Z,2.80
2019-06-27T12:20:15.982Z,3.00
2019-06-27T12:22:45.717Z,2.70
2019-06-27T12:25:14.621Z,2.87
2019-06-27T12:27:43.407Z,2.92
2019-06-27T12:30:12.286Z,2.67
2019-06-27T12:32:51.609Z,2.62
2019-06-27T12:35:12.208Z,3.00
2019-06-27T12:37:41.494Z,3.17
2019-06-27T12:40:10.095Z,2.50
2019-06-27T12:42:38.474Z,2.60
2019-06-27T12:45:07.871Z,2.47
2019-06-27T12:47:36.661Z,2.50
2019-06-27T12:50:06.888Z,2.62
2019-06-27T12:52:35.772Z,2.65
2019-06-27T12:55:04.462Z,2.80
2019-06-27T12:57:33.142Z,2.65
2019-06-27T13:00:01.626Z,2.83
2019-06-27T13:02:30.085Z,2.45
2019-06-27T13:04:58.650Z,2.10
2019-06-27T13:07:27.329Z,2.10
2019-06-27T13:09:56.570Z,2.02
2019-06-27T13:12:25.650Z,1.95
2019-06-27T13:14:55.958Z,2.37
2019-06-27T13:17:24.472Z,1.98
2019-06-27T13:19:52.962Z,2.02
2019-06-27T13:22:21.274Z,2.00
2019-06-27T13:24:49.555Z,2.25
2019-06-27T13:27:19.129Z,1.82
2019-06-27T13:29:47.408Z,1.60
2019-06-27T13:32:16.545Z,1.82
2019-06-27T13:34:44.822Z,1.72
2019-06-27T13:37:13.327Z,1.75
2019-06-27T13:39:41.838Z,1.50
2019-06-27T13:42:10.392Z,1.75
2019-06-27T13:44:40.466Z,2.00
2019-06-27T13:47:08.869Z,1.60
2019-06-27T13:49:37.539Z,1.80
2019-06-27T13:52:06.459Z,1.40
2019-06-27T13:54:34.989Z,1.40
2019-06-27T13:57:03.506Z,1.30
2019-06-27T13:59:31.964Z,1.72
2019-06-27T14:02:00.689Z,1.85
2019-06-27T14:04:29.020Z,1.62
2019-06-27T14:06:58.706Z,1.50
2019-06-27T14:09:27.226Z,1.70
2019-06-27T14:11:55.509Z,1.82
2019-06-27T14:14:24.066Z,1.60
2019-06-27T14:16:53.885Z,1.50
2019-06-27T14:19:22.170Z,1.52
2019-06-27T14:21:50.893Z,1.60
2019-06-27T14:24:19.813Z,1.85
2019-06-27T14:26:49.141Z,1.70
2019-06-27T14:29:17.743Z,1.82
2019-06-27T14:31:47.901Z,1.65
2019-06-27T14:34:16.560Z,1.82
2019-06-27T14:36:45.873Z,1.50
2019-06-27T14:39:14.972Z,2.00
2019-06-27T14:41:44.575Z,1.40
2019-06-27T14:44:13.434Z,1.70
2019-06-27T14:46:43.190Z,1.77
2019-06-27T14:49:12.182Z,1.65
2019-06-27T14:51:41.707Z,2.08
2019-06-27T14:54:10.478Z,1.82
2019-06-27T14:56:39.351Z,2.05
2019-06-27T14:59:08.268Z,2.20
2019-06-27T15:01:36.571Z,2.30
2019-06-27T15:04:05.900Z,2.02
2019-06-27T15:06:35.004Z,1.90
2019-06-27T15:09:04.293Z,2.10
2019-06-27T15:11:33.177Z,2.17
2019-06-27T15:14:01.659Z,2.17
2019-06-27T15:16:30.265Z,1.80
2019-06-27T15:18:59.841Z,2.17
2019-06-27T15:21:28.220Z,1.80
2019-06-27T15:23:56.903Z,1.90
2019-06-27T15:26:26.125Z,1.90
2019-06-27T15:28:54.605Z,1.80
2019-06-27T15:31:23.508Z,1.80
2019-06-27T15:33:52.380Z,1.98
2019-06-27T15:36:20.932Z,2.30
2019-06-27T15:38:49.619Z,1.70
2019-06-27T15:41:18.241Z,1.82
2019-06-27T15:43:46.579Z,2.00
2019-06-27T15:46:15.604Z,2.08
2019-06-27T15:48:44.282Z,8.90
2019-06-27T15:51:12.758Z,24.25
2019-06-27T15:53:41.237Z,22.17
2019-06-27T15:56:10.137Z,14.18
2019-06-27T15:58:38.491Z,10.78
2019-06-27T16:01:06.878Z,3.45
2019-06-27T16:03:35.644Z,2.70
2019-06-27T16:06:10.210Z,2.25
2019-06-27T16:08:35.946Z,2.80
2019-06-27T16:11:04.712Z,8.30
2019-06-27T16:13:33.286Z,3.58
2019-06-27T16:16:01.907Z,3.35
2019-06-27T16:18:30.364Z,3.02
2019-06-27T16:20:59.847Z,1.80
2019-06-27T16:23:28.953Z,2.10
2019-06-27T16:25:57.229Z,1.98
2019-06-27T16:28:27.269Z,3.05
2019-06-27T16:30:56.499Z,2.27
2019-06-27T16:33:25.221Z,2.55
2019-06-27T16:35:54.014Z,2.47
2019-06-27T16:38:22.494Z,5.45
2019-06-27T16:40:51.052Z,4.33
2019-06-27T16:43:19.770Z,2.47
2019-06-27T16:45:49.470Z,3.37
2019-06-27T16:48:18.245Z,2.72
2019-06-27T16:50:46.518Z,2.60
2019-06-27T16:53:15.441Z,2.45
2019-06-27T16:55:43.594Z,2.60
2019-06-27T16:58:11.861Z,2.67
2019-06-27T17:00:40.453Z,2.70
2019-06-27T17:03:08.997Z,2.70
2019-06-27T17:05:37.702Z,3.70
2019-06-27T17:08:06.300Z,3.58
2019-06-27T17:10:35.139Z,3.85
2019-06-27T17:13:03.569Z,9.53
2019-06-27T17:15:31.861Z,4.15
2019-06-27T17:18:00.436Z,6.72
2019-06-27T17:20:28.601Z,6.08
2019-06-27T17:22:58.410Z,7.05
2019-06-27T17:25:27.111Z,6.37
2019-06-27T17:27:55.956Z,4.35
2019-06-27T17:30:24.818Z,3.12
2019-06-27T17:32:53.656Z,4.50
2019-06-27T17:35:22.003Z,3.77
2019-06-27T17:37:50.725Z,2.80
2019-06-27T17:40:19.614Z,2.30
2019-06-27T17:42:48.197Z,2.27
2019-06-27T17:45:17.707Z,2.52
2019-06-27T17:47:46.687Z,2.50
2019-06-27T17:50:15.176Z,2.80
2019-06-27T17:52:43.767Z,4.25
2019-06-27T17:55:12.080Z,2.92
2019-06-27T17:57:40.808Z,3.45
2019-06-27T18:00:09.472Z,3.20
2019-06-27T18:02:37.757Z,3.70
2019-06-27T18:05:06.664Z,3.98
2019-06-27T18:07:35.418Z,4.78
2019-06-27T18:10:04.447Z,4.75
2019-06-27T18:12:32.913Z,5.05
2019-06-27T18:15:01.217Z,5.15
2019-06-27T18:17:33.934Z,5.42
2019-06-27T18:20:00.828Z,5.42
2019-06-27T18:22:29.114Z,4.10
2019-06-27T18:24:58.622Z,3.40
2019-06-27T18:27:27.500Z,2.77
2019-06-27T18:29:55.958Z,2.10
2019-06-27T18:32:24.472Z,4.53
2019-06-27T18:34:53.351Z,3.02
2019-06-27T18:37:29.822Z,2.45
2019-06-27T18:39:52.690Z,2.25
2019-06-27T18:42:21.107Z,2.50
2019-06-27T18:44:49.343Z,2.30
2019-06-27T18:47:18.070Z,2.30
2019-06-27T18:49:46.451Z,2.35
2019-06-27T18:52:15.384Z,2.40
2019-06-27T18:54:43.916Z,2.55
2019-06-27T18:57:12.882Z,2.20
2019-06-27T18:59:41.506Z,2.17
2019-06-27T19:02:09.766Z,2.30
2019-06-27T19:04:38.165Z,2.10
2019-06-27T19:07:06.784Z,2.00
2019-06-27T19:09:35.340Z,2.02
2019-06-27T19:12:04.451Z,2.50
2019-06-27T19:14:33.115Z,2.65
2019-06-27T19:17:01.999Z,2.30
2019-06-27T19:19:32.366Z,2.92
2019-06-27T19:22:08.454Z,2.70
2019-06-27T19:24:47.929Z,2.90
2019-06-27T19:27:17.967Z,2.95
2019-06-27T19:29:46.425Z,3.30
2019-06-27T19:32:15.656Z,5.75
2019-06-27T19:34:45.872Z,3.08
2019-06-27T19:37:14.614Z,2.90
2019-06-27T19:39:43.526Z,3.63
2019-06-27T19:42:12.375Z,3.77
2019-06-27T19:44:40.889Z,3.77
2019-06-27T19:47:09.685Z,3.98
2019-06-27T19:49:38.737Z,4.60
2019-06-27T19:52:07.355Z,5.67
2019-06-27T19:54:35.602Z,5.47
2019-06-27T19:57:04.332Z,6.17
2019-06-27T19:59:33.441Z,5.40
2019-06-27T20:02:02.143Z,6.73
2019-06-27T20:04:33.831Z,7.33
2019-06-27T20:07:01.116Z,5.83
2019-06-27T20:09:29.600Z,5.47
2019-06-27T20:11:57.941Z,7.03
2019-06-27T20:14:26.489Z,7.47
2019-06-27T20:16:55.236Z,8.97
2019-06-27T20:19:23.979Z,10.50
2019-06-27T20:21:52.610Z,10.20
2019-06-27T20:24:21.894Z,10.93
2019-06-27T20:26:51.183Z,12.10
2019-06-27T20:29:21.327Z,10.70
2019-06-27T20:31:50.254Z,10.27
2019-06-27T20:34:19.411Z,9.83
2019-06-27T20:36:48.458Z,9.90
2019-06-27T20:39:18.016Z,8.47
2019-06-27T20:41:47.282Z,7.77
2019-06-27T20:44:16.497Z,7.93
2019-06-27T20:46:46.759Z,8.40
2019-06-27T20:49:16.369Z,8.40
2019-06-27T20:51:45.218Z,8.60
2019-06-27T20:54:14.398Z,9.37
2019-06-27T20:56:43.565Z,9.43
2019-06-27T20:59:12.212Z,9.40
2019-06-27T21:01:41.509Z,7.90
2019-06-27T21:04:10.171Z,8.00
2019-06-27T21:06:38.470Z,7.87
2019-06-27T21:09:07.436Z,9.27
2019-06-27T21:11:36.299Z,9.83
2019-06-27T21:14:04.986Z,9.07
2019-06-27T21:16:34.168Z,8.43
2019-06-27T21:19:02.867Z,9.70
2019-06-27T21:21:31.527Z,8.97
2019-06-27T21:24:00.375Z,9.27
2019-06-27T21:26:29.477Z,8.90
2019-06-27T21:29:00.044Z,5.80
2019-06-27T21:31:30.019Z,4.70
2019-06-27T21:33:59.263Z,6.30
2019-06-27T21:36:27.871Z,6.63
2019-06-27T21:39:07.057Z,5.50
2019-06-27T21:41:26.482Z,7.17
2019-06-27T21:43:54.815Z,7.20
2019-06-27T21:46:23.483Z,5.20
2019-06-27T21:48:52.590Z,6.17
2019-06-27T21:51:21.431Z,6.10
2019-06-27T21:53:49.800Z,4.10
2019-06-27T21:56:18.405Z,4.50
2019-06-27T21:58:46.735Z,4.40
2019-06-27T22:01:15.565Z,4.20
2019-06-27T22:03:44.217Z,4.00
2019-06-27T22:06:12.876Z,4.03
2019-06-27T22:08:41.617Z,3.80
2019-06-27T22:11:10.042Z,3.53
2019-06-27T22:13:38.869Z,3.50
2019-06-27T22:16:07.785Z,3.10
2019-06-27T22:18:36.382Z,3.70
2019-06-27T22:21:04.854Z,3.67
2019-06-27T22:23:33.069Z,3.17
2019-06-27T22:26:01.930Z,3.37
2019-06-27T22:28:30.686Z,3.43
2019-06-27T22:30:58.948Z,2.97
2019-06-27T22:33:28.213Z,2.67
2019-06-27T22:35:56.529Z,3.17
2019-06-27T22:38:43.450Z,2.80
2019-06-27T22:41:29.957Z,3.57
2019-06-27T22:44:16.244Z,3.40
2019-06-27T22:47:02.755Z,2.93
2019-06-27T22:49:30.676Z,3.13
2019-06-27T22:52:00.521Z,2.90
2019-06-27T22:54:30.494Z,2.70
2019-06-27T22:56:59.420Z,3.20
2019-06-27T22:59:27.975Z,2.77
2019-06-27T23:01:56.496Z,3.23
2019-06-27T23:04:24.858Z,2.87
2019-06-27T23:06:53.137Z,3.00
2019-06-27T23:09:21.495Z,3.53
2019-06-27T23:11:49.875Z,2.83
2019-06-27T23:14:18.504Z,3.20
2019-06-27T23:16:46.782Z,3.00
2019-06-27T23:19:15.242Z,3.30
2019-06-27T23:21:45.942Z,3.00
2019-06-27T23:24:14.216Z,3.10
2019-06-27T23:26:42.609Z,3.20
2019-06-27T23:29:10.884Z,2.70
2019-06-27T23:31:39.123Z,2.80
2019-06-27T23:34:08.354Z,2.70
2019-06-27T23:36:36.939Z,3.03
2019-06-27T23:39:05.263Z,3.40
2019-06-27T23:41:33.799Z,3.20
2019-06-27T23:44:02.312Z,3.33
2019-06-27T23:46:41.027Z,3.17
2019-06-27T23:49:09.881Z,3.20
2019-06-27T23:51:38.223Z,3.47
2019-06-27T23:54:07.035Z,2.90
2019-06-27T23:56:35.896Z,3.10
2019-06-27T23:59:04.760Z,2.77
